Time;durP1;ratioP1;P1;durP2;ratioP2;P2;SDS_P1;SDS_P2;PMS_P1;PMS_P2;Temp;Humidity;BMP_temperature;BMP_pressure;BME280_temperature;BME280_humidity;BME280_pressure;Samples;Min_cycle;Max_cycle;Signal;HPM_P1;HPM_P2
2021/09/03 00:00:47;;;;;;;;;;;;;;;;;;2086093;28;4029;-67
2021/09/03 00:01:47;;;;;;;;;;;;;;;;;;2087085;28;4465;-67
2021/09/03 00:02:48;;;;;;;;;;;;;;;;;;2091387;28;4941;-67
2021/09/03 00:03:49;;;;;;;;;;;;;;;;;;2087707;28;3951;-64
2021/09/03 00:04:50;;;;;;;;;;;;;;;;;;2085738;28;4595;-64
2021/09/03 00:05:50;;;;;;;;;;;;;;;;;;2086063;28;4345;-67
2021/09/03 00:06:51;;;;;;;;;;;;;;;;;;2086693;28;4014;-67
2021/09/03 00:07:51;;;;;;;;;;;;;;;;;;2087934;28;3841;-66
2021/09/03 00:08:52;;;;;;;;;;;;;;;;;;2092577;28;3704;-66
2021/09/03 00:09:53;;;;;;;;;;;;;;;;;;2093520;28;4425;-66
2021/09/03 00:10:53;;;;;;;;;;;;;;;;;;2086295;28;3863;-66
2021/09/03 00:11:54;;;;;;;;;;;;;;;;;;2087093;28;3437;-67
2021/09/03 00:12:55;;;;;;;;;;;;;;;;;;2087646;28;3838;-66
2021/09/03 00:13:56;;;;;;;;;;;;;;;;;;2086348;28;4251;-67
2021/09/03 00:14:56;;;;;;;;;;;;;;;;;;2086054;28;3964;-66
2021/09/03 00:15:57;;;;;;;;;;;;;;;;;;2086600;28;3564;-66
2021/09/03 00:16:57;;;;;;;;;;;;;;;;;;2088611;28;4560;-66
2021/09/03 00:18:02;;;;;;;;;;;;;;;;;;2089975;28;4007;-66
2021/09/03 00:19:02;;;;;;;;;;;;;;;;;;2087040;28;3486;-66
2021/09/03 00:20:03;;;;;;;;;;;;;;;;;;2088948;28;4127;-65
2021/09/03 00:21:03;;;;;;;;;;;;;;;;;;2084771;28;3705;-66
2021/09/03 00:22:04;;;;;;;;;;;;;;;;;;2088542;28;3400;-67
2021/09/03 00:23:04;;;;;;;;;;;;;;;;;;2085665;28;4409;-66
2021/09/03 00:24:05;;;;;;;;;;;;;;;;;;2089139;28;4330;-66
2021/09/03 00:25:06;;;;;;;;;;;;;;;;;;2089961;28;4609;-66
2021/09/03 00:26:07;;;;;;;;;;;;;;;;;;2085164;28;3411;-67
2021/09/03 00:27:07;;;;;;;;;;;;;;;;;;2087689;28;4097;-66
2021/09/03 00:28:08;;;;;;;;;;;;;;;;;;2088911;28;4225;-67
2021/09/03 00:29:08;;;;;;;;;;;;;;;;;;2086569;28;3557;-66
2021/09/03 00:30:09;;;;;;;;;;;;;;;;;;2088886;28;4349;-67
2021/09/03 00:31:09;;;;;;;;;;;;;;;;;;2088757;28;4295;-66
2021/09/03 00:32:10;;;;;;;;;;;;;;;;;;2086309;28;3456;-66
2021/09/03 00:33:11;;;;;;;;;;;;;;;;;;2088008;28;3883;-66
2021/09/03 00:34:12;;;;;;;;;;;;;;;;;;2084373;28;4250;-66
2021/09/03 00:35:12;;;;;;;;;;;;;;;;;;2085425;28;3628;-66
2021/09/03 00:36:13;;;;;;;;;;;;;;;;;;2085990;28;3589;-66
2021/09/03 00:37:14;;;;;;;;;;;;;;;;;;2086411;28;3751;-66
2021/09/03 00:38:14;;;;;;;;;;;;;;;;;;2087366;28;4249;-67
2021/09/03 00:39:15;;;;;;;;;;;;;;;;;;2089419;28;4548;-67
2021/09/03 00:40:15;;;;;;;;;;;;;;;;;;2089067;28;4432;-66
2021/09/03 00:41:16;;;;;;;;;;;;;;;;;;2089121;28;4000;-66
2021/09/03 00:42:16;;;;;;;;;;;;;;;;;;2086437;28;4526;-67
2021/09/03 00:43:18;;;;;;;;;;;;;;;;;;2083448;28;3578;-67
2021/09/03 00:44:18;;;;;;;;;;;;;;;;;;2076816;28;3416;-66
2021/09/03 00:45:19;;;;;;;;;;;;;;;;;;2086090;28;3670;-67
2021/09/03 00:46:19;;;;;;;;;;;;;;;;;;2086597;28;4178;-67
2021/09/03 00:47:20;;;;;;;;;;;;;;;;;;2087289;28;4001;-66
2021/09/03 00:48:20;;;;;;;;;;;;;;;;;;2088133;28;4460;-66
2021/09/03 00:49:21;;;;;;;;;;;;;;;;;;2089535;28;3696;-67
2021/09/03 00:50:21;;;;;;;;;;;;;;;;;;2087272;28;4703;-67
2021/09/03 00:51:23;;;;;;;;;;;;;;;;;;2085306;28;4230;-67
2021/09/03 00:52:23;;;;;;;;;;;;;;;;;;2084455;28;4222;-66
2021/09/03 00:53:24;;;;;;;;;;;;;;;;;;2088193;28;4487;-67
2021/09/03 00:54:24;;;;;;;;;;;;;;;;;;2089368;28;4555;-67
2021/09/03 00:55:25;;;;;;;;;;;;;;;;;;2087019;28;4342;-67
2021/09/03 00:56:25;;;;;;;;;;;;;;;;;;2085719;28;3811;-66
2021/09/03 00:57:26;;;;;;;;;;;;;;;;;;2090540;28;3982;-66
2021/09/03 00:58:26;;;;;;;;;;;;;;;;;;2088579;28;4210;-67
2021/09/03 00:59:27;;;;;;;;;;;;;;;;;;2087355;28;3787;-67
2021/09/03 01:00:28;;;;;;;;;;;;;;;;;;2088180;28;4878;-67
2021/09/03 01:01:29;;;;;;;;;;;;;;;;;;2083243;28;4154;-67
2021/09/03 01:02:29;;;;;;;;;;;;;;;;;;2085712;28;3625;-67
2021/09/03 01:03:30;;;;;;;;;;;;;;;;;;2084582;28;4406;-67
2021/09/03 01:04:30;;;;;;;;;;;;;;;;;;2088805;28;4132;-66
2021/09/03 01:05:31;;;;;;;;;;;;;;;;;;2086438;28;3784;-67
2021/09/03 01:06:31;;;;;;;;;;;;;;;;;;2085717;28;4074;-67
2021/09/03 01:07:32;;;;;;;;;;;;;;;;;;2085983;28;3732;-67
2021/09/03 01:08:32;;;;;;;;;;;;;;;;;;2088335;28;4198;-66
2021/09/03 01:09:33;;;;;;;;;;;;;;;;;;2091786;28;4428;-67
2021/09/03 01:10:34;;;;;;;;;;;;;;;;;;2093077;28;4475;-66
2021/09/03 01:11:35;;;;;;;;;;;;;;;;;;2085791;28;4114;-66
2021/09/03 01:12:35;;;;;;;;;;;;;;;;;;2087936;28;3870;-67
2021/09/03 01:13:36;;;;;;;;;;;;;;;;;;2088516;28;4679;-66
2021/09/03 01:14:36;;;;;;;;;;;;;;;;;;2086446;28;4524;-67
2021/09/03 01:15:37;;;;;;;;;;;;;;;;;;2086528;28;4311;-67
2021/09/03 01:16:37;;;;;;;;;;;;;;;;;;2084936;28;3949;-67
2021/09/03 01:17:39;;;;;;;;;;;;;;;;;;2086892;28;4459;-67
2021/09/03 01:18:39;;;;;;;;;;;;;;;;;;2087935;28;4421;-66
2021/09/03 01:19:40;;;;;;;;;;;;;;;;;;2089562;28;4873;-67
2021/09/03 01:20:40;;;;;;;;;;;;;;;;;;2086911;28;3598;-67
2021/09/03 01:21:41;;;;;;;;;;;;;;;;;;2086088;28;4020;-67
2021/09/03 01:22:41;;;;;;;;;;;;;;;;;;2087686;28;3934;-66
2021/09/03 01:23:42;;;;;;;;;;;;;;;;;;2087735;28;4321;-67
2021/09/03 01:24:43;;;;;;;;;;;;;;;;;;2089688;28;4488;-67
2021/09/03 01:25:44;;;;;;;;;;;;;;;;;;2087813;28;4278;-67
2021/09/03 01:26:44;;;;;;;;;;;;;;;;;;2085579;28;4230;-66
2021/09/03 01:27:45;;;;;;;;;;;;;;;;;;2086102;28;3895;-66
2021/09/03 01:28:45;;;;;;;;;;;;;;;;;;2088399;28;4233;-66
2021/09/03 01:29:46;;;;;;;;;;;;;;;;;;2086438;28;3593;-66
2021/09/03 01:30:46;;;;;;;;;;;;;;;;;;2086242;28;3651;-67
2021/09/03 01:31:47;;;;;;;;;;;;;;;;;;2085866;28;3906;-66
2021/09/03 01:32:49;;;;;;;;;;;;;;;;;;2084073;28;4502;-66
2021/09/03 01:33:54;;;;;;;;;;;;;;;;;;2084862;28;4164;-67
2021/09/03 01:34:54;;;;;;;;;;;;;;;;;;2086236;28;3856;-66
2021/09/03 01:35:55;;;;;;;;;;;;;;;;;;2086864;28;4181;-66
2021/09/03 01:36:56;;;;;;;;;;;;;;;;;;2086771;28;4330;-66
2021/09/03 01:37:57;;;;;;;;;;;;;;;;;;2083149;28;3701;-67
2021/09/03 01:38:57;;;;;;;;;;;;;;;;;;2089474;28;4565;-66
2021/09/03 01:39:58;;;;;;;;;;;;;;;;;;2088804;28;4222;-66
2021/09/03 01:40:58;;;;;;;;;;;;;;;;;;2084180;28;3427;-66
2021/09/03 01:41:59;;;;;;;;;;;;;;;;;;2085462;28;3873;-66
2021/09/03 01:42:59;;;;;;;;;;;;;;;;;;2084593;28;3254;-67
2021/09/03 01:44:00;;;;;;;;;;;;;;;;;;2085949;28;3588;-67
2021/09/03 01:45:01;;;;;;;;;;;;;;;;;;2085159;28;4050;-67
2021/09/03 01:46:02;;;;;;;;;;;;;;;;;;2087464;28;4321;-67
2021/09/03 01:47:02;;;;;;;;;;;;;;;;;;2088177;28;3995;-67
2021/09/03 01:48:03;;;;;;;;;;;;;;;;;;2089226;28;3234;-67
2021/09/03 01:49:03;;;;;;;;;;;;;;;;;;2087093;28;3941;-66
2021/09/03 01:50:04;;;;;;;;;;;;;;;;;;2084903;28;4387;-66
2021/09/03 01:51:04;;;;;;;;;;;;;;;;;;2086637;28;4364;-66
2021/09/03 01:52:05;;;;;;;;;;;;;;;;;;2084955;28;3970;-66
2021/09/03 01:53:06;;;;;;;;;;;;;;;;;;2083172;28;3952;-67
2021/09/03 01:54:07;;;;;;;;;;;;;;;;;;2088113;28;4761;-66
2021/09/03 01:55:07;;;;;;;;;;;;;;;;;;2088804;28;4579;-67
2021/09/03 01:56:08;;;;;;;;;;;;;;;;;;2084844;28;4812;-67
2021/09/03 01:57:08;;;;;;;;;;;;;;;;;;2085878;28;4190;-67
2021/09/03 01:58:09;;;;;;;;;;;;;;;;;;2088039;28;4261;-66
2021/09/03 01:59:09;;;;;;;;;;;;;;;;;;2085322;28;3996;-67
2021/09/03 02:00:10;;;;;;;;;;;;;;;;;;2087283;28;4205;-67
2021/09/03 02:01:11;;;;;;;;;;;;;;;;;;2084359;28;4920;-67
2021/09/03 02:02:12;;;;;;;;;;;;;;;;;;2088105;28;4071;-66
2021/09/03 02:03:14;;;;;;;;;;;;;;;;;;2083989;28;3235;-67
2021/09/03 02:04:15;;;;;;;;;;;;;;;;;;2088349;28;3770;-66
2021/09/03 02:05:15;;;;;;;;;;;;;;;;;;2081161;28;4204;-67
2021/09/03 02:06:16;;;;;;;;;;;;;;;;;;2084257;28;3675;-67
2021/09/03 02:07:16;;;;;;;;;;;;;;;;;;2087546;28;4123;-67
2021/09/03 02:08:17;;;;;;;;;;;;;;;;;;2087216;28;3817;-68
2021/09/03 02:09:18;;;;;;;;;;;;;;;;;;2089684;28;3982;-67
2021/09/03 02:10:19;;;;;;;;;;;;;;;;;;2087475;28;4282;-66
2021/09/03 02:11:19;;;;;;;;;;;;;;;;;;2084142;28;3625;-67
2021/09/03 02:12:20;;;;;;;;;;;;;;;;;;2086911;28;3937;-66
2021/09/03 02:13:20;;;;;;;;;;;;;;;;;;2083978;28;3772;-66
2021/09/03 02:14:21;;;;;;;;;;;;;;;;;;2085682;28;3948;-66
2021/09/03 02:15:21;;;;;;;;;;;;;;;;;;2089259;28;3517;-67
2021/09/03 02:16:22;;;;;;;;;;;;;;;;;;2086107;28;4441;-67
2021/09/03 02:17:22;;;;;;;;;;;;;;;;;;2088727;28;3347;-66
2021/09/03 02:18:23;;;;;;;;;;;;;;;;;;2084938;28;4430;-66
2021/09/03 02:19:23;;;;;;;;;;;;;;;;;;2086273;28;4155;-68
2021/09/03 02:20:25;;;;;;;;;;;;;;;;;;2088531;28;4512;-66
2021/09/03 02:21:25;;;;;;;;;;;;;;;;;;2088165;28;4747;-66
2021/09/03 02:22:26;;;;;;;;;;;;;;;;;;2088964;28;4887;-66
2021/09/03 02:23:26;;;;;;;;;;;;;;;;;;2089161;28;4412;-67
2021/09/03 02:24:27;;;;;;;;;;;;;;;;;;2087311;28;4783;-67
2021/09/03 02:25:27;;;;;;;;;;;;;;;;;;2087272;28;4541;-67
2021/09/03 02:26:28;;;;;;;;;;;;;;;;;;2088525;28;4580;-67
2021/09/03 02:27:28;;;;;;;;;;;;;;;;;;2083867;28;4362;-66
2021/09/03 02:28:29;;;;;;;;;;;;;;;;;;2086457;28;4068;-67
2021/09/03 02:29:29;;;;;;;;;;;;;;;;;;2085120;28;3873;-66
2021/09/03 02:30:31;;;;;;;;;;;;;;;;;;2086166;28;3941;-67
2021/09/03 02:31:31;;;;;;;;;;;;;;;;;;2088585;28;4071;-67
2021/09/03 02:32:32;;;;;;;;;;;;;;;;;;2086563;28;3638;-66
2021/09/03 02:33:32;;;;;;;;;;;;;;;;;;2085366;28;4338;-66
2021/09/03 02:34:33;;;;;;;;;;;;;;;;;;2088388;28;4369;-66
2021/09/03 02:35:33;;;;;;;;;;;;;;;;;;2088253;28;3959;-66
2021/09/03 02:36:34;;;;;;;;;;;;;;;;;;2086958;28;4188;-66
2021/09/03 02:37:34;;;;;;;;;;;;;;;;;;2089138;28;3844;-66
2021/09/03 02:38:35;;;;;;;;;;;;;;;;;;2091231;28;4507;-67
2021/09/03 02:39:35;;;;;;;;;;;;;;;;;;2088357;28;4247;-67
2021/09/03 02:40:37;;;;;;;;;;;;;;;;;;2087476;28;4469;-67
2021/09/03 02:41:37;;;;;;;;;;;;;;;;;;2084665;28;4205;-67
2021/09/03 02:42:38;;;;;;;;;;;;;;;;;;2086811;28;3919;-67
2021/09/03 02:43:38;;;;;;;;;;;;;;;;;;2086483;28;4296;-67
2021/09/03 02:44:39;;;;;;;;;;;;;;;;;;2086576;28;4412;-66
2021/09/03 02:45:39;;;;;;;;;;;;;;;;;;2086511;28;4437;-66
2021/09/03 02:46:40;;;;;;;;;;;;;;;;;;2084813;28;3484;-66
2021/09/03 02:47:40;;;;;;;;;;;;;;;;;;2087006;28;4307;-66
2021/09/03 02:48:41;;;;;;;;;;;;;;;;;;2085802;28;3645;-66
2021/09/03 02:49:41;;;;;;;;;;;;;;;;;;2086885;28;4631;-66
2021/09/03 02:50:43;;;;;;;;;;;;;;;;;;2086194;28;3653;-65
2021/09/03 02:51:43;;;;;;;;;;;;;;;;;;2083740;28;3584;-67
2021/09/03 02:52:44;;;;;;;;;;;;;;;;;;2085558;28;4131;-66
2021/09/03 02:53:44;;;;;;;;;;;;;;;;;;2084857;28;4154;-65
2021/09/03 02:54:45;;;;;;;;;;;;;;;;;;2088726;28;4294;-66
2021/09/03 02:55:45;;;;;;;;;;;;;;;;;;2087508;28;4062;-66
2021/09/03 02:56:46;;;;;;;;;;;;;;;;;;2084915;28;4187;-67
2021/09/03 02:57:46;;;;;;;;;;;;;;;;;;2085577;28;3479;-67
2021/09/03 02:58:47;;;;;;;;;;;;;;;;;;2085811;28;3598;-66
2021/09/03 02:59:47;;;;;;;;;;;;;;;;;;2085239;28;3300;-66
2021/09/03 03:00:49;;;;;;;;;;;;;;;;;;2087185;28;4404;-66
2021/09/03 03:01:49;;;;;;;;;;;;;;;;;;2085373;28;4171;-67
2021/09/03 03:02:51;;;;;;;;;;;;;;;;;;2087354;28;4324;-66
2021/09/03 03:03:51;;;;;;;;;;;;;;;;;;2085594;28;4184;-66
2021/09/03 03:04:52;;;;;;;;;;;;;;;;;;2082444;28;4353;-66
2021/09/03 03:05:53;;;;;;;;;;;;;;;;;;2083677;28;3578;-67
2021/09/03 03:06:54;;;;;;;;;;;;;;;;;;2084193;28;3929;-66
2021/09/03 03:07:54;;;;;;;;;;;;;;;;;;2085330;28;4400;-66
2021/09/03 03:08:55;;;;;;;;;;;;;;;;;;2087681;28;3914;-66
2021/09/03 03:09:55;;;;;;;;;;;;;;;;;;2090568;28;4338;-67
2021/09/03 03:10:56;;;;;;;;;;;;;;;;;;2084504;28;3745;-66
2021/09/03 03:11:56;;;;;;;;;;;;;;;;;;2086560;28;4265;-67
2021/09/03 03:12:58;;;;;;;;;;;;;;;;;;2086153;28;4253;-67
2021/09/03 03:14:04;;;;;;;;;;;;;;;;;;2085270;28;3708;-67
2021/09/03 03:15:05;;;;;;;;;;;;;;;;;;2084418;28;3493;-66
2021/09/03 03:16:05;;;;;;;;;;;;;;;;;;2084892;28;3480;-67
2021/09/03 03:17:06;;;;;;;;;;;;;;;;;;2085962;28;4019;-67
2021/09/03 03:18:06;;;;;;;;;;;;;;;;;;2084224;28;3597;-66
2021/09/03 03:19:07;;;;;;;;;;;;;;;;;;2085858;28;3590;-66
2021/09/03 03:20:07;;;;;;;;;;;;;;;;;;2086079;28;3806;-68
2021/09/03 03:21:09;;;;;;;;;;;;;;;;;;2084971;28;3536;-67
2021/09/03 03:22:09;;;;;;;;;;;;;;;;;;2085141;28;3949;-66
2021/09/03 03:23:10;;;;;;;;;;;;;;;;;;2089121;28;4189;-67
2021/09/03 03:24:11;;;;;;;;;;;;;;;;;;2091479;28;3425;-66
2021/09/03 03:25:11;;;;;;;;;;;;;;;;;;2089648;28;4184;-66
2021/09/03 03:26:12;;;;;;;;;;;;;;;;;;2083910;28;4017;-67
2021/09/03 03:27:12;;;;;;;;;;;;;;;;;;2087705;28;3999;-67
2021/09/03 03:28:13;;;;;;;;;;;;;;;;;;2088616;28;4532;-66
2021/09/03 03:29:13;;;;;;;;;;;;;;;;;;2095175;28;1093;-66
2021/09/03 03:30:14;;;;;;;;;;;;;;;;;;2092303;28;4369;-65
2021/09/03 03:31:16;;;;;;;;;;;;;;;;;;2092521;28;3391;-66
2021/09/03 03:32:16;;;;;;;;;;;;;;;;;;2095490;28;1201;-67
2021/09/03 03:33:17;;;;;;;;;;;;;;;;;;2090447;28;3283;-67
2021/09/03 03:34:17;;;;;;;;;;;;;;;;;;2093721;28;3341;-66
2021/09/03 03:35:18;;;;;;;;;;;;;;;;;;2086975;28;4155;-66
2021/09/03 03:36:19;;;;;;;;;;;;;;;;;;2086775;28;4637;-66
2021/09/03 03:37:19;;;;;;;;;;;;;;;;;;2085991;28;4176;-66
2021/09/03 03:38:20;;;;;;;;;;;;;;;;;;2089668;28;3901;-66
2021/09/03 03:39:20;;;;;;;;;;;;;;;;;;2093675;28;3780;-67
2021/09/03 03:40:22;;;;;;;;;;;;;;;;;;2092934;28;3971;-66
2021/09/03 03:42:40;;;;;;;;;;;;;;;;;;2122581;27;3634;-66
2021/09/03 03:43:41;;;;;;;;;;;;;;;;;;2118270;27;3736;-66
2021/09/03 03:44:42;;;;;;;;;;;;;;;;;;2119645;27;1137;-65
2021/09/03 03:45:42;;;;;;;;;;;;;;;;;;2118531;27;3730;-66
2021/09/03 03:46:43;;;;;;;;;;;;;;;;;;2117922;27;4298;-66
2021/09/03 03:47:43;;;;;;;;;;;;;;;;;;2118993;27;3909;-66
2021/09/03 03:48:44;;;;;;;;;;;;;;;;;;2120900;27;3995;-65
2021/09/03 03:49:45;;;;;;;;;;;;;;;;;;2119952;27;1086;-66
2021/09/03 03:50:45;;;;;;;;;;;;;;;;;;2118954;27;3748;-65
2021/09/03 03:51:46;;;;;;;;;;;;;;;;;;2107482;27;1241;-66
2021/09/03 03:52:46;;;;;;;;;;;;;;;;;;2106887;27;1177;-66
2021/09/03 03:53:47;;;;;;;;;;;;;;;;;;2105044;27;1041;-66
2021/09/03 03:54:48;;;;;;;;;;;;;;;;;;2103732;27;2195;-65
2021/09/03 03:55:49;;;;;;;;;;;;;;;;;;2104456;27;3973;-66
2021/09/03 03:56:49;;;;;;;;;;;;;;;;;;2106237;27;1033;-66
2021/09/03 03:57:50;;;;;;;;;;;;;;;;;;2105851;27;1037;-66
2021/09/03 03:58:50;;;;;;;;;;;;;;;;;;2106846;28;1009;-66
2021/09/03 03:59:51;;;;;;;;;;;;;;;;;;2106733;27;1057;-67
2021/09/03 04:00:51;;;;;;;;;;;;;;;;;;2106547;28;3592;-65
2021/09/03 04:01:52;;;;;;;;;;;;;;;;;;2106398;27;1914;-65
2021/09/03 04:02:52;;;;;;;;;;;;;;;;;;2106056;27;4109;-65
2021/09/03 04:03:54;;;;;;;;;;;;;;;;;;2105415;27;4155;-66
2021/09/03 04:04:54;;;;;;;;;;;;;;;;;;2106428;27;3303;-65
2021/09/03 04:05:55;;;;;;;;;;;;;;;;;;2107498;27;3622;-66
2021/09/03 04:06:55;;;;;;;;;;;;;;;;;;2106823;28;1137;-65
2021/09/03 04:07:56;;;;;;;;;;;;;;;;;;2102542;28;1312;-65
2021/09/03 04:08:56;;;;;;;;;;;;;;;;;;2103677;27;3766;-66
2021/09/03 04:09:57;;;;;;;;;;;;;;;;;;2106134;27;3731;-66
2021/09/03 04:10:58;;;;;;;;;;;;;;;;;;2106536;27;3639;-66
2021/09/03 04:11:59;;;;;;;;;;;;;;;;;;2107089;27;4237;-66
2021/09/03 04:12:59;;;;;;;;;;;;;;;;;;2108059;28;1092;-66
2021/09/03 04:14:00;;;;;;;;;;;;;;;;;;2107722;27;1695;-66
2021/09/03 04:15:01;;;;;;;;;;;;;;;;;;2107294;27;3860;-66
2021/09/03 04:16:02;;;;;;;;;;;;;;;;;;2107043;27;3385;-66
2021/09/03 04:17:02;;;;;;;;;;;;;;;;;;2106363;27;3560;-66
2021/09/03 04:18:03;;;;;;;;;;;;;;;;;;2107863;27;3081;-66
2021/09/03 04:19:03;;;;;;;;;;;;;;;;;;2107637;28;1196;-66
2021/09/03 04:20:04;;;;;;;;;;;;;;;;;;2106701;28;4231;-66
2021/09/03 04:21:04;;;;;;;;;;;;;;;;;;2107176;27;3245;-66
2021/09/03 04:22:05;;;;;;;;;;;;;;;;;;2107978;28;4403;-66
2021/09/03 04:23:08;;;;;;;;;;;;;;;;;;2107638;27;1255;-66
2021/09/03 04:24:09;;;;;;;;;;;;;;;;;;2107855;27;1891;-66
2021/09/03 04:25:10;;;;;;;;;;;;;;;;;;2107388;27;3388;-65
2021/09/03 04:26:11;;;;;;;;;;;;;;;;;;2107996;27;1572;-65
2021/09/03 04:27:11;;;;;;;;;;;;;;;;;;2107515;27;3848;-66
2021/09/03 04:28:12;;;;;;;;;;;;;;;;;;2106972;27;4309;-64
2021/09/03 04:29:12;;;;;;;;;;;;;;;;;;2108219;27;4348;-65
2021/09/03 04:30:13;;;;;;;;;;;;;;;;;;2107246;27;3702;-66
2021/09/03 04:31:13;;;;;;;;;;;;;;;;;;2107340;27;4242;-66
2021/09/03 04:32:14;;;;;;;;;;;;;;;;;;2109368;27;3749;-66
2021/09/03 04:33:15;;;;;;;;;;;;;;;;;;2106783;27;3211;-64
2021/09/03 04:34:16;;;;;;;;;;;;;;;;;;2109795;27;1018;-66
2021/09/03 04:35:16;;;;;;;;;;;;;;;;;;2108119;27;3299;-65
2021/09/03 04:36:17;;;;;;;;;;;;;;;;;;2107518;27;4236;-66
2021/09/03 04:37:17;;;;;;;;;;;;;;;;;;2109615;27;1818;-66
2021/09/03 04:38:20;;;;;;;;;;;;;;;;;;2108170;27;2237;-66
2021/09/03 04:39:20;;;;;;;;;;;;;;;;;;2107881;27;1523;-66
2021/09/03 04:40:21;;;;;;;;;;;;;;;;;;2109888;27;1185;-66
2021/09/03 04:41:22;;;;;;;;;;;;;;;;;;2107956;27;3171;-65
2021/09/03 04:42:23;;;;;;;;;;;;;;;;;;2110569;27;1909;-66
2021/09/03 04:43:23;;;;;;;;;;;;;;;;;;2108706;27;1041;-65
2021/09/03 04:44:24;;;;;;;;;;;;;;;;;;2110754;27;1568;-65
2021/09/03 04:45:24;;;;;;;;;;;;;;;;;;2108991;27;4301;-65
2021/09/03 04:46:25;;;;;;;;;;;;;;;;;;2110118;27;1032;-65
2021/09/03 04:47:25;;;;;;;;;;;;;;;;;;2110616;27;1106;-67
2021/09/03 04:48:26;;;;;;;;;;;;;;;;;;2110725;27;1126;-66
2021/09/03 04:49:26;;;;;;;;;;;;;;;;;;2111060;27;1099;-66
2021/09/03 04:50:28;;;;;;;;;;;;;;;;;;2110521;28;2142;-66
2021/09/03 04:51:28;;;;;;;;;;;;;;;;;;2110938;27;1498;-66
2021/09/03 04:52:29;;;;;;;;;;;;;;;;;;2110628;28;3916;-66
2021/09/03 04:53:29;;;;;;;;;;;;;;;;;;2100596;28;1108;-66
2021/09/03 04:54:30;;;;;;;;;;;;;;;;;;2099965;27;1137;-65
2021/09/03 04:55:30;;;;;;;;;;;;;;;;;;2098318;28;3856;-65
2021/09/03 04:56:31;;;;;;;;;;;;;;;;;;2098918;28;3186;-65
2021/09/03 04:57:32;;;;;;;;;;;;;;;;;;2099635;28;2337;-66
2021/09/03 04:58:33;;;;;;;;;;;;;;;;;;2097655;28;4070;-65
2021/09/03 04:59:34;;;;;;;;;;;;;;;;;;2099218;28;4024;-66
2021/09/03 05:00:35;;;;;;;;;;;;;;;;;;2098195;28;3783;-66
2021/09/03 05:01:35;;;;;;;;;;;;;;;;;;2099710;28;1267;-65
2021/09/03 05:02:37;;;;;;;;;;;;;;;;;;2094673;28;3881;-66
2021/09/03 05:03:38;;;;;;;;;;;;;;;;;;2097221;28;3577;-66
2021/09/03 05:04:39;;;;;;;;;;;;;;;;;;2100416;28;1161;-65
2021/09/03 05:05:40;;;;;;;;;;;;;;;;;;2097995;28;3981;-66
2021/09/03 05:06:40;;;;;;;;;;;;;;;;;;2099532;28;1062;-66
2021/09/03 05:07:42;;;;;;;;;;;;;;;;;;2101237;28;1282;-66
2021/09/03 05:08:43;;;;;;;;;;;;;;;;;;2100775;28;1364;-66
2021/09/03 05:09:43;;;;;;;;;;;;;;;;;;2100199;28;1077;-65
2021/09/03 05:10:44;;;;;;;;;;;;;;;;;;2098122;28;4149;-65
2021/09/03 05:11:51;;;;;;;;;;;;;;;;;;2099324;28;4216;-65
2021/09/03 05:12:52;;;;;;;;;;;;;;;;;;2101416;28;1026;-66
2021/09/03 05:13:52;;;;;;;;;;;;;;;;;;2101250;28;1169;-66
2021/09/03 05:14:53;;;;;;;;;;;;;;;;;;2101103;28;2595;-66
2021/09/03 05:15:53;;;;;;;;;;;;;;;;;;2101333;28;4456;-65
2021/09/03 05:16:55;;;;;;;;;;;;;;;;;;2101241;28;3156;-65
2021/09/03 05:17:56;;;;;;;;;;;;;;;;;;2100560;28;3999;-66
2021/09/03 05:18:56;;;;;;;;;;;;;;;;;;2101567;28;3641;-65
2021/09/03 05:19:57;;;;;;;;;;;;;;;;;;2101649;28;1443;-67
2021/09/03 05:21:01;;;;;;;;;;;;;;;;;;2101221;28;2236;-66
2021/09/03 05:22:01;;;;;;;;;;;;;;;;;;2102501;28;1930;-66
2021/09/03 05:23:02;;;;;;;;;;;;;;;;;;2100974;28;4101;-65
2021/09/03 05:24:02;;;;;;;;;;;;;;;;;;2101210;28;1373;-66
2021/09/03 05:25:03;;;;;;;;;;;;;;;;;;2101000;28;3442;-66
2021/09/03 05:26:03;;;;;;;;;;;;;;;;;;2101179;28;1122;-65
2021/09/03 05:27:04;;;;;;;;;;;;;;;;;;2102511;28;1073;-66
2021/09/03 05:28:04;;;;;;;;;;;;;;;;;;2099684;28;4178;-66
2021/09/03 05:29:06;;;;;;;;;;;;;;;;;;2101062;27;3861;-66
2021/09/03 05:30:07;;;;;;;;;;;;;;;;;;2101766;28;1633;-66
2021/09/03 05:31:08;;;;;;;;;;;;;;;;;;2096831;28;3029;-65
2021/09/03 05:32:08;;;;;;;;;;;;;;;;;;2094656;28;3361;-66
2021/09/03 05:33:10;;;;;;;;;;;;;;;;;;2093101;28;3876;-65
2021/09/03 05:34:10;;;;;;;;;;;;;;;;;;2093641;28;4049;-65
2021/09/03 05:35:11;;;;;;;;;;;;;;;;;;2092501;27;4166;-65
2021/09/03 05:36:12;;;;;;;;;;;;;;;;;;2097629;28;4251;-66
2021/09/03 05:37:12;;;;;;;;;;;;;;;;;;2102101;28;3974;-65
2021/09/03 05:38:13;;;;;;;;;;;;;;;;;;2097313;28;3800;-65
2021/09/03 05:39:13;;;;;;;;;;;;;;;;;;2099198;28;4419;-66
2021/09/03 05:40:15;;;;;;;;;;;;;;;;;;2101343;28;3652;-66
2021/09/03 05:41:15;;;;;;;;;;;;;;;;;;2103049;28;1244;-66
2021/09/03 05:42:18;;;;;;;;;;;;;;;;;;2103484;28;3630;-66
2021/09/03 05:43:21;;;;;;;;;;;;;;;;;;2101822;28;1081;-66
2021/09/03 05:44:22;;;;;;;;;;;;;;;;;;2103558;28;1065;-66
2021/09/03 05:45:23;;;;;;;;;;;;;;;;;;2100449;27;3367;-65
2021/09/03 05:46:23;;;;;;;;;;;;;;;;;;2102218;28;3252;-66
2021/09/03 05:47:24;;;;;;;;;;;;;;;;;;2104636;28;1025;-66
2021/09/03 05:48:25;;;;;;;;;;;;;;;;;;2102736;28;3238;-65
2021/09/03 05:49:26;;;;;;;;;;;;;;;;;;2105055;28;1391;-65
2021/09/03 05:50:27;;;;;;;;;;;;;;;;;;2104665;28;1159;-65
2021/09/03 05:51:28;;;;;;;;;;;;;;;;;;2104109;28;3819;-65
2021/09/03 05:52:28;;;;;;;;;;;;;;;;;;2104969;28;1062;-66
2021/09/03 05:53:29;;;;;;;;;;;;;;;;;;2104838;28;1044;-66
2021/09/03 05:54:29;;;;;;;;;;;;;;;;;;2105354;28;1036;-66
2021/09/03 05:55:30;;;;;;;;;;;;;;;;;;2104495;28;4142;-65
2021/09/03 05:56:30;;;;;;;;;;;;;;;;;;2102620;28;3758;-67
2021/09/03 05:57:31;;;;;;;;;;;;;;;;;;2102346;28;3946;-66
2021/09/03 05:58:32;;;;;;;;;;;;;;;;;;2101289;28;1041;-65
2021/09/03 05:59:33;;;;;;;;;;;;;;;;;;2098227;28;2996;-66
2021/09/03 06:00:34;;;;;;;;;;;;;;;;;;2097752;28;3974;-66
2021/09/03 06:01:34;;;;;;;;;;;;;;;;;;2098384;27;3008;-66
2021/09/03 06:02:35;;;;;;;;;;;;;;;;;;2093971;28;3501;-66
2021/09/03 06:03:36;;;;;;;;;;;;;;;;;;2094742;28;1060;-65
2021/09/03 06:04:37;;;;;;;;;;;;;;;;;;2098459;28;1077;-66
2021/09/03 06:05:37;;;;;;;;;;;;;;;;;;2096986;28;3864;-66
2021/09/03 06:06:38;;;;;;;;;;;;;;;;;;2097615;28;4023;-66
2021/09/03 06:07:39;;;;;;;;;;;;;;;;;;2099462;28;2896;-65
2021/09/03 06:08:40;;;;;;;;;;;;;;;;;;2099366;28;4065;-65
2021/09/03 06:09:41;;;;;;;;;;;;;;;;;;2099006;28;1097;-65
2021/09/03 06:10:41;;;;;;;;;;;;;;;;;;2098992;28;4235;-67
2021/09/03 06:11:42;;;;;;;;;;;;;;;;;;2099175;28;4171;-67
2021/09/03 06:12:43;;;;;;;;;;;;;;;;;;2099527;28;2872;-66
2021/09/03 06:13:43;;;;;;;;;;;;;;;;;;2098446;28;3294;-66
2021/09/03 06:14:44;;;;;;;;;;;;;;;;;;2099406;28;2509;-67
2021/09/03 06:15:44;;;;;;;;;;;;;;;;;;2099491;28;2923;-65
2021/09/03 06:16:45;;;;;;;;;;;;;;;;;;2098356;28;3746;-66
2021/09/03 06:17:45;;;;;;;;;;;;;;;;;;2098819;28;4031;-66
2021/09/03 06:18:47;;;;;;;;;;;;;;;;;;2098550;28;4119;-65
2021/09/03 06:19:47;;;;;;;;;;;;;;;;;;2097623;28;4261;-66
2021/09/03 06:20:48;;;;;;;;;;;;;;;;;;2099425;28;2774;-66
2021/09/03 06:21:48;;;;;;;;;;;;;;;;;;2098096;28;4422;-66
2021/09/03 06:22:49;;;;;;;;;;;;;;;;;;2099832;28;3915;-66
2021/09/03 06:23:49;;;;;;;;;;;;;;;;;;2098277;28;3911;-66
2021/09/03 06:24:50;;;;;;;;;;;;;;;;;;2098919;28;3807;-66
2021/09/03 06:25:51;;;;;;;;;;;;;;;;;;2098806;28;3939;-66
2021/09/03 06:26:51;;;;;;;;;;;;;;;;;;2099722;28;4373;-66
2021/09/03 06:27:53;;;;;;;;;;;;;;;;;;2100128;28;3948;-65
2021/09/03 06:28:53;;;;;;;;;;;;;;;;;;2100376;28;4357;-65
2021/09/03 06:29:54;;;;;;;;;;;;;;;;;;2101233;28;1273;-66
2021/09/03 06:30:54;;;;;;;;;;;;;;;;;;2100500;28;2510;-66
2021/09/03 06:31:55;;;;;;;;;;;;;;;;;;2100262;28;3283;-66
2021/09/03 06:32:56;;;;;;;;;;;;;;;;;;2099535;28;3929;-65
2021/09/03 06:33:56;;;;;;;;;;;;;;;;;;2097994;27;3944;-65
2021/09/03 06:34:57;;;;;;;;;;;;;;;;;;2099614;28;4038;-66
2021/09/03 06:35:57;;;;;;;;;;;;;;;;;;2101159;28;1568;-67
2021/09/03 06:36:58;;;;;;;;;;;;;;;;;;2101342;28;4041;-66
2021/09/03 06:38:00;;;;;;;;;;;;;;;;;;2100610;28;4154;-66
2021/09/03 06:39:00;;;;;;;;;;;;;;;;;;2100211;28;2992;-65
2021/09/03 06:40:01;;;;;;;;;;;;;;;;;;2101798;28;1042;-66
2021/09/03 06:41:02;;;;;;;;;;;;;;;;;;2100224;28;4031;-66
2021/09/03 06:42:02;;;;;;;;;;;;;;;;;;2101499;28;3978;-65
2021/09/03 06:43:03;;;;;;;;;;;;;;;;;;2099498;28;4077;-65
2021/09/03 06:44:03;;;;;;;;;;;;;;;;;;2097472;28;4019;-65
2021/09/03 06:45:04;;;;;;;;;;;;;;;;;;2098419;28;4489;-65
2021/09/03 06:46:05;;;;;;;;;;;;;;;;;;2099262;28;4423;-65
2021/09/03 06:47:05;;;;;;;;;;;;;;;;;;2100225;28;3503;-66
2021/09/03 06:48:06;;;;;;;;;;;;;;;;;;2102125;28;4049;-66
2021/09/03 06:49:07;;;;;;;;;;;;;;;;;;2099824;28;4014;-66
2021/09/03 06:50:09;;;;;;;;;;;;;;;;;;2101432;28;3784;-66
2021/09/03 06:51:09;;;;;;;;;;;;;;;;;;2100865;28;3963;-65
2021/09/03 06:52:10;;;;;;;;;;;;;;;;;;2101465;28;3618;-65
2021/09/03 06:53:11;;;;;;;;;;;;;;;;;;2102094;28;1497;-66
2021/09/03 06:54:11;;;;;;;;;;;;;;;;;;2101207;27;4356;-66
2021/09/03 06:55:12;;;;;;;;;;;;;;;;;;2100495;28;3561;-65
2021/09/03 06:56:12;;;;;;;;;;;;;;;;;;2100346;28;3985;-65
2021/09/03 06:57:13;;;;;;;;;;;;;;;;;;2101264;28;1364;-65
2021/09/03 06:58:15;;;;;;;;;;;;;;;;;;2102062;28;3885;-65
2021/09/03 06:59:15;;;;;;;;;;;;;;;;;;2099867;28;4271;-65
2021/09/03 07:00:16;;;;;;;;;;;;;;;;;;2099916;28;4415;-65
2021/09/03 07:01:16;;;;;;;;;;;;;;;;;;2102079;28;3691;-66
2021/09/03 07:02:17;;;;;;;;;;;;;;;;;;2101952;28;4340;-66
2021/09/03 07:03:18;;;;;;;;;;;;;;;;;;2102356;27;1983;-66